createdAt,value
2022-08-27T00:00:24.343Z,990.76
2022-08-27T00:01:24.329Z,990.71
2022-08-27T00:02:24.450Z,990.65
2022-08-27T00:03:24.377Z,990.67
2022-08-27T00:04:24.397Z,990.72
2022-08-27T00:05:24.322Z,990.69
2022-08-27T00:06:24.319Z,990.65
2022-08-27T00:07:24.315Z,990.70
2022-08-27T00:08:24.302Z,990.66
2022-08-27T00:09:27.042Z,990.65
2022-08-27T00:10:25.297Z,990.63
2022-08-27T00:11:24.279Z,990.65
2022-08-27T00:12:24.259Z,990.60
2022-08-27T00:13:24.290Z,990.63
2022-08-27T00:14:24.311Z,990.66
2022-08-27T00:15:24.259Z,990.65
2022-08-27T00:16:24.278Z,990.67
2022-08-27T00:17:24.255Z,990.65
2022-08-27T00:18:24.209Z,990.64
2022-08-27T00:19:24.281Z,990.64
2022-08-27T00:20:24.233Z,990.63
2022-08-27T00:21:24.226Z,990.66
2022-08-27T00:22:24.213Z,990.68
2022-08-27T00:23:24.230Z,990.62
2022-08-27T00:24:24.233Z,990.67
2022-08-27T00:25:24.180Z,990.63
2022-08-27T00:26:24.201Z,990.62
2022-08-27T00:27:24.171Z,990.66
2022-08-27T00:28:24.193Z,990.64
2022-08-27T00:29:24.184Z,990.58
2022-08-27T00:30:24.169Z,990.57
2022-08-27T00:31:27.215Z,990.57
2022-08-27T00:32:24.152Z,990.54
2022-08-27T00:33:24.131Z,990.55
2022-08-27T00:34:24.133Z,990.58
2022-08-27T00:35:24.140Z,990.56
2022-08-27T00:36:24.135Z,990.56
2022-08-27T00:37:24.094Z,990.55
2022-08-27T00:38:24.074Z,990.53
2022-08-27T00:39:24.071Z,990.57
2022-08-27T00:40:24.126Z,990.52
2022-08-27T00:41:24.097Z,990.50
2022-08-27T00:42:24.061Z,990.53
2022-08-27T00:43:24.046Z,990.55
2022-08-27T00:44:24.093Z,990.48
2022-08-27T00:45:24.117Z,990.51
2022-08-27T00:46:24.063Z,990.45
2022-08-27T00:47:24.027Z,990.47
2022-08-27T00:48:24.010Z,990.51
2022-08-27T00:49:24.009Z,990.49
2022-08-27T00:50:23.998Z,990.47
2022-08-27T00:51:24.017Z,990.49
2022-08-27T00:52:24.044Z,990.53
2022-08-27T00:53:24.004Z,990.53
2022-08-27T00:54:23.992Z,990.52
2022-08-27T00:55:24.027Z,990.53
2022-08-27T00:56:23.971Z,990.48
2022-08-27T00:57:23.972Z,990.50
2022-08-27T00:58:23.947Z,990.49
2022-08-27T00:59:23.931Z,990.49
2022-08-27T01:00:23.950Z,990.50
2022-08-27T01:01:24.020Z,990.50
2022-08-27T01:02:23.966Z,990.48
2022-08-27T01:03:23.925Z,990.50
2022-08-27T01:04:23.898Z,990.51
2022-08-27T01:05:23.881Z,990.53
2022-08-27T01:06:23.927Z,990.52
2022-08-27T01:07:23.897Z,990.60
2022-08-27T01:08:23.902Z,990.60
2022-08-27T01:09:23.868Z,990.58
2022-08-27T01:10:23.921Z,990.54
2022-08-27T01:11:23.872Z,990.52
2022-08-27T01:12:23.861Z,990.56
2022-08-27T01:13:40.764Z,990.62
2022-08-27T01:14:24.825Z,990.60
2022-08-27T01:15:23.857Z,990.61
2022-08-27T01:16:23.885Z,990.64
2022-08-27T01:17:23.818Z,990.61
2022-08-27T01:18:23.856Z,990.67
2022-08-27T01:19:23.833Z,990.63
2022-08-27T01:20:23.783Z,990.64
2022-08-27T01:21:23.777Z,990.64
2022-08-27T01:22:23.819Z,990.68
2022-08-27T01:23:23.774Z,990.69
2022-08-27T01:24:23.774Z,990.73
2022-08-27T01:25:23.747Z,990.71
2022-08-27T01:26:23.739Z,990.69
2022-08-27T01:27:23.749Z,990.70
2022-08-27T01:28:26.899Z,990.69
2022-08-27T01:29:24.739Z,990.68
2022-08-27T01:30:23.703Z,990.72
2022-08-27T01:31:23.743Z,990.76
2022-08-27T01:32:23.694Z,990.73
2022-08-27T01:33:23.690Z,990.73
2022-08-27T01:34:23.726Z,990.78
2022-08-27T01:35:23.687Z,990.78
2022-08-27T01:36:23.670Z,990.79
2022-08-27T01:37:24.261Z,990.77
2022-08-27T01:38:30.498Z,990.85
2022-08-27T01:39:24.692Z,990.85
2022-08-27T01:40:23.744Z,990.81
2022-08-27T01:41:23.680Z,990.83
2022-08-27T01:42:23.629Z,990.90
2022-08-27T01:43:23.630Z,990.82
2022-08-27T01:44:23.644Z,990.85
2022-08-27T01:45:23.642Z,990.86
2022-08-27T01:46:23.715Z,990.81
2022-08-27T01:47:23.637Z,990.88
2022-08-27T01:48:24.611Z,990.86
2022-08-27T01:49:23.628Z,990.83
2022-08-27T01:50:23.586Z,990.87
2022-08-27T01:51:23.614Z,990.94
2022-08-27T01:52:23.553Z,990.88
2022-08-27T01:53:23.566Z,990.95
2022-08-27T01:54:23.555Z,991.00
2022-08-27T01:55:23.533Z,991.00
2022-08-27T01:56:23.548Z,991.05
2022-08-27T01:57:26.099Z,991.04
2022-08-27T01:58:24.568Z,991.09
2022-08-27T01:59:23.534Z,991.04
2022-08-27T02:00:25.515Z,991.07
2022-08-27T02:01:23.546Z,991.08
2022-08-27T02:02:23.520Z,991.08
2022-08-27T02:03:23.543Z,991.06
2022-08-27T02:04:23.685Z,991.09
2022-08-27T02:05:23.472Z,991.08
2022-08-27T02:06:23.453Z,991.07
2022-08-27T02:07:23.472Z,991.19
2022-08-27T02:08:23.490Z,991.04
2022-08-27T02:09:23.452Z,991.10
2022-08-27T02:10:23.455Z,991.10
2022-08-27T02:11:23.430Z,991.07
2022-08-27T02:12:23.423Z,991.19
2022-08-27T02:13:23.444Z,991.11
2022-08-27T02:14:23.428Z,991.13
2022-08-27T02:15:23.446Z,991.15
2022-08-27T02:16:23.475Z,991.16
2022-08-27T02:17:23.420Z,991.18
2022-08-27T02:18:23.395Z,991.14
2022-08-27T02:19:23.391Z,991.19
2022-08-27T02:20:23.383Z,991.15
2022-08-27T02:21:23.356Z,991.16
2022-08-27T02:22:23.352Z,991.15
2022-08-27T02:23:23.421Z,991.15
2022-08-27T02:24:23.357Z,991.15
2022-08-27T02:25:23.317Z,991.09
2022-08-27T02:26:23.324Z,991.12
2022-08-27T02:27:23.331Z,991.13
2022-08-27T02:28:23.322Z,991.21
2022-08-27T02:29:23.300Z,991.16
2022-08-27T02:30:23.308Z,991.11
2022-08-27T02:31:23.437Z,991.11
2022-08-27T02:32:31.531Z,991.17
2022-08-27T02:33:24.283Z,991.18
2022-08-27T02:34:23.311Z,991.18
2022-08-27T02:35:23.280Z,991.15
2022-08-27T02:36:23.292Z,991.17
2022-08-27T02:37:23.274Z,991.17
2022-08-27T02:38:23.266Z,991.16
2022-08-27T02:39:23.258Z,991.13
2022-08-27T02:40:23.327Z,991.16
2022-08-27T02:41:23.209Z,991.11
2022-08-27T02:42:23.223Z,991.13
2022-08-27T02:43:25.309Z,991.14
2022-08-27T02:44:23.230Z,991.07
2022-08-27T02:45:23.239Z,991.09
2022-08-27T02:46:23.203Z,991.07
2022-08-27T02:47:23.173Z,991.06
2022-08-27T02:48:23.181Z,991.04
2022-08-27T02:49:23.173Z,991.05
2022-08-27T02:50:27.040Z,991.00
2022-08-27T02:51:23.175Z,991.00
2022-08-27T02:52:25.264Z,991.02
2022-08-27T02:53:23.251Z,991.07
2022-08-27T02:54:23.138Z,991.03
2022-08-27T02:55:23.151Z,991.00
2022-08-27T02:56:23.236Z,991.05
2022-08-27T02:57:23.137Z,991.05
2022-08-27T02:58:23.118Z,991.08
2022-08-27T02:59:23.095Z,991.07
2022-08-27T03:00:23.092Z,991.02
2022-08-27T03:01:23.233Z,991.03
2022-08-27T03:02:23.182Z,990.98
2022-08-27T03:03:23.058Z,991.07
2022-08-27T03:04:23.082Z,991.04
2022-08-27T03:05:23.063Z,991.00
2022-08-27T03:06:24.054Z,991.09
2022-08-27T03:07:23.036Z,991.05
2022-08-27T03:08:23.026Z,991.07
2022-08-27T03:09:23.082Z,991.05
2022-08-27T03:10:23.018Z,991.09
2022-08-27T03:11:23.037Z,991.03
2022-08-27T03:12:24.803Z,991.13
2022-08-27T03:13:23.019Z,991.06
2022-08-27T03:14:22.997Z,991.08
2022-08-27T03:15:22.998Z,991.02
2022-08-27T03:16:23.051Z,991.04
2022-08-27T03:17:23.029Z,991.05
2022-08-27T03:18:22.993Z,991.08
2022-08-27T03:19:23.696Z,991.01
2022-08-27T03:20:22.988Z,990.99
2022-08-27T03:21:23.001Z,991.02
2022-08-27T03:22:22.964Z,991.07
2022-08-27T03:23:23.011Z,991.09
2022-08-27T03:24:22.967Z,991.10
2022-08-27T03:25:22.925Z,991.11
2022-08-27T03:26:22.982Z,991.00
2022-08-27T03:27:22.986Z,991.17
2022-08-27T03:28:23.809Z,991.12
2022-08-27T03:29:22.941Z,991.05
2022-08-27T03:30:22.943Z,991.14
2022-08-27T03:31:22.964Z,991.13
2022-08-27T03:32:22.896Z,991.17
2022-08-27T03:33:22.902Z,991.17
2022-08-27T03:34:22.929Z,991.17
2022-08-27T03:35:22.880Z,991.24
2022-08-27T03:36:22.866Z,991.18
2022-08-27T03:37:22.844Z,991.20
2022-08-27T03:38:22.885Z,991.19
2022-08-27T03:39:28.134Z,991.21
2022-08-27T03:40:22.901Z,991.25
2022-08-27T03:41:22.803Z,991.20
2022-08-27T03:42:23.817Z,991.21
2022-08-27T03:43:22.813Z,991.22
2022-08-27T03:44:22.826Z,991.21
2022-08-27T03:45:22.806Z,991.22
2022-08-27T03:46:22.884Z,991.16
2022-08-27T03:47:22.778Z,991.21
2022-08-27T03:48:22.757Z,991.19
2022-08-27T03:49:22.775Z,991.21
2022-08-27T03:50:22.764Z,991.14
2022-08-27T03:51:22.782Z,991.24
2022-08-27T03:52:22.748Z,991.16
2022-08-27T03:53:22.734Z,991.24
2022-08-27T03:54:22.734Z,991.21
2022-08-27T03:55:22.716Z,991.23
2022-08-27T03:56:23.192Z,991.17
2022-08-27T03:57:22.756Z,991.17
2022-08-27T03:58:22.696Z,991.18
2022-08-27T03:59:22.699Z,991.19
2022-08-27T04:00:22.686Z,991.20
2022-08-27T04:01:22.759Z,991.20
2022-08-27T04:02:22.788Z,991.20
2022-08-27T04:03:22.679Z,991.16
2022-08-27T04:04:22.665Z,991.21
2022-08-27T04:05:22.698Z,991.19
2022-08-27T04:06:22.683Z,991.18
2022-08-27T04:07:22.637Z,991.23
2022-08-27T04:08:22.618Z,991.17
2022-08-27T04:09:22.628Z,991.20
2022-08-27T04:10:22.645Z,991.20
2022-08-27T04:11:22.623Z,991.19
2022-08-27T04:12:22.646Z,991.26
2022-08-27T04:13:22.586Z,991.22
2022-08-27T04:14:26.869Z,991.22
2022-08-27T04:15:23.602Z,991.17
2022-08-27T04:16:22.745Z,991.23
2022-08-27T04:17:22.549Z,991.23
2022-08-27T04:18:22.535Z,991.22
2022-08-27T04:19:26.879Z,991.19
2022-08-27T04:20:36.094Z,991.19
2022-08-27T04:21:24.537Z,991.17
2022-08-27T04:22:22.542Z,991.22
2022-08-27T04:23:22.508Z,991.23
2022-08-27T04:24:22.526Z,991.23
2022-08-27T04:25:22.572Z,991.25
2022-08-27T04:26:22.649Z,991.23
2022-08-27T04:27:22.497Z,991.23
2022-08-27T04:28:22.481Z,991.25
2022-08-27T04:29:22.530Z,991.27
2022-08-27T04:30:23.513Z,991.27
2022-08-27T04:31:22.509Z,991.26
2022-08-27T04:32:22.502Z,991.26
2022-08-27T04:33:22.523Z,991.32
2022-08-27T04:34:22.465Z,991.24
2022-08-27T04:35:22.438Z,991.28
2022-08-27T04:36:22.440Z,991.26
2022-08-27T04:37:23.282Z,991.27
2022-08-27T04:38:24.657Z,991.25
2022-08-27T04:39:22.400Z,991.26
2022-08-27T04:40:22.463Z,991.25
2022-08-27T04:41:22.398Z,991.22
2022-08-27T04:42:22.474Z,991.25
2022-08-27T04:43:22.395Z,991.26
2022-08-27T04:44:22.404Z,991.25
2022-08-27T04:45:22.376Z,991.25
2022-08-27T04:46:22.424Z,991.25
2022-08-27T04:47:22.414Z,991.26
2022-08-27T04:48:22.336Z,991.28
2022-08-27T04:49:22.495Z,991.28
2022-08-27T04:50:22.324Z,991.27
2022-08-27T04:51:22.347Z,991.31
2022-08-27T04:52:22.344Z,991.31
2022-08-27T04:53:22.296Z,991.26
2022-08-27T04:54:22.493Z,991.26
2022-08-27T04:55:23.347Z,991.32
2022-08-27T04:56:22.326Z,991.32
2022-08-27T04:57:22.391Z,991.30
2022-08-27T04:58:22.382Z,991.30
2022-08-27T04:59:22.256Z,991.30
2022-08-27T05:00:22.264Z,991.29
2022-08-27T05:01:22.289Z,991.36
2022-08-27T05:02:22.278Z,991.31
2022-08-27T05:03:22.248Z,991.33
2022-08-27T05:04:22.224Z,991.27
2022-08-27T05:05:22.236Z,991.30
2022-08-27T05:06:22.214Z,991.27
2022-08-27T05:07:22.369Z,991.31
2022-08-27T05:08:22.259Z,991.32
2022-08-27T05:09:22.259Z,991.27
2022-08-27T05:10:22.315Z,991.30
2022-08-27T05:11:22.181Z,991.32
2022-08-27T05:12:22.177Z,991.35
2022-08-27T05:13:22.282Z,991.36
2022-08-27T05:14:22.150Z,991.40
2022-08-27T05:15:22.163Z,991.39
2022-08-27T05:16:22.219Z,991.38
2022-08-27T05:17:22.149Z,991.39
2022-08-27T05:18:22.161Z,991.41
2022-08-27T05:19:22.148Z,991.39
2022-08-27T05:20:22.133Z,991.40
2022-08-27T05:21:22.149Z,991.41
2022-08-27T05:22:22.104Z,991.41
2022-08-27T05:23:22.181Z,991.39
2022-08-27T05:24:22.251Z,991.50
2022-08-27T05:25:22.105Z,991.52
2022-08-27T05:26:22.084Z,991.50
2022-08-27T05:27:22.089Z,991.52
2022-08-27T05:28:22.063Z,991.50
2022-08-27T05:29:23.095Z,991.47
2022-08-27T05:30:22.056Z,991.46
2022-08-27T05:31:22.186Z,991.48
2022-08-27T05:32:22.034Z,991.45
2022-08-27T05:33:22.084Z,991.49
2022-08-27T05:34:25.673Z,991.53
2022-08-27T05:35:23.045Z,991.48
2022-08-27T05:36:22.015Z,991.51
2022-08-27T05:37:21.994Z,991.50
2022-08-27T05:38:22.015Z,991.52
2022-08-27T05:39:21.994Z,991.53
2022-08-27T05:40:22.031Z,991.52
2022-08-27T05:41:21.982Z,991.55
2022-08-27T05:42:21.988Z,991.57
2022-08-27T05:43:21.956Z,991.57
2022-08-27T05:44:40.976Z,991.56
2022-08-27T05:45:23.996Z,991.54
2022-08-27T05:46:21.971Z,991.54
2022-08-27T05:47:21.954Z,991.56
2022-08-27T05:48:21.961Z,991.60
2022-08-27T05:49:21.905Z,991.57
2022-08-27T05:50:23.672Z,991.54
2022-08-27T05:51:25.627Z,991.58
2022-08-27T05:52:21.926Z,991.53
2022-08-27T05:53:21.913Z,991.52
2022-08-27T05:54:21.881Z,991.55
2022-08-27T05:55:21.906Z,991.55
2022-08-27T05:56:21.866Z,991.58
2022-08-27T05:57:21.901Z,991.55
2022-08-27T05:58:21.878Z,991.55
2022-08-27T05:59:21.837Z,991.58
2022-08-27T06:00:21.844Z,991.56
2022-08-27T06:01:21.852Z,991.57
2022-08-27T06:02:21.909Z,991.57
2022-08-27T06:03:21.827Z,991.54
2022-08-27T06:04:21.964Z,991.55
2022-08-27T06:05:21.821Z,991.54
2022-08-27T06:06:21.785Z,991.52
2022-08-27T06:07:21.825Z,991.60
2022-08-27T06:08:21.802Z,991.59
2022-08-27T06:09:21.847Z,991.53
2022-08-27T06:10:21.785Z,991.59
2022-08-27T06:11:21.765Z,991.61
2022-08-27T06:12:28.104Z,991.62
2022-08-27T06:13:22.754Z,991.64
2022-08-27T06:14:21.850Z,991.59
2022-08-27T06:15:22.033Z,991.61
2022-08-27T06:16:21.899Z,991.65
2022-08-27T06:17:21.796Z,991.64
2022-08-27T06:18:21.870Z,991.59
2022-08-27T06:19:21.691Z,991.64
2022-08-27T06:20:21.708Z,991.60
2022-08-27T06:21:24.580Z,991.60
2022-08-27T06:22:22.680Z,991.64
2022-08-27T06:23:27.873Z,991.59
2022-08-27T06:24:22.670Z,991.53
2022-08-27T06:25:21.682Z,991.52
2022-08-27T06:26:21.826Z,991.59
2022-08-27T06:27:21.644Z,991.54
2022-08-27T06:28:21.642Z,991.54
2022-08-27T06:29:21.786Z,991.58
2022-08-27T06:30:21.617Z,991.54
2022-08-27T06:31:21.713Z,991.55
2022-08-27T06:32:21.721Z,991.55
2022-08-27T06:33:21.659Z,991.58
2022-08-27T06:34:21.614Z,991.51
2022-08-27T06:35:21.614Z,991.54
2022-08-27T06:36:21.639Z,991.60
2022-08-27T06:37:21.625Z,991.58
2022-08-27T06:38:21.556Z,991.57
2022-08-27T06:39:21.554Z,991.50
2022-08-27T06:40:21.622Z,991.59
2022-08-27T06:41:23.625Z,991.56
2022-08-27T06:42:21.566Z,991.66
2022-08-27T06:43:25.009Z,991.62
2022-08-27T06:44:22.534Z,991.64
2022-08-27T06:45:21.511Z,991.63
2022-08-27T06:46:21.572Z,991.67
2022-08-27T06:47:21.543Z,991.65
2022-08-27T06:48:21.596Z,991.67
2022-08-27T06:49:21.542Z,991.68
2022-08-27T06:50:25.440Z,991.65
2022-08-27T06:51:23.463Z,991.64
2022-08-27T06:52:21.463Z,991.65
2022-08-27T06:53:24.498Z,991.71
2022-08-27T06:54:21.509Z,991.68
2022-08-27T06:55:21.477Z,991.69
2022-08-27T06:56:21.466Z,991.69
2022-08-27T06:57:21.500Z,991.66
2022-08-27T06:58:21.448Z,991.64
2022-08-27T06:59:21.469Z,991.69
2022-08-27T07:00:21.431Z,991.65
2022-08-27T07:01:21.488Z,991.68
2022-08-27T07:02:21.535Z,991.69
2022-08-27T07:03:21.496Z,991.69
2022-08-27T07:04:21.412Z,991.73
2022-08-27T07:05:21.468Z,991.71
2022-08-27T07:06:21.369Z,991.73
2022-08-27T07:07:32.548Z,991.72
2022-08-27T07:08:22.380Z,991.77
2022-08-27T07:09:21.371Z,991.77
2022-08-27T07:10:22.338Z,991.73
2022-08-27T07:11:21.380Z,991.78
2022-08-27T07:12:21.390Z,991.79
2022-08-27T07:13:22.445Z,991.78
2022-08-27T07:14:21.322Z,991.79
2022-08-27T07:15:21.786Z,991.81
2022-08-27T07:16:22.775Z,991.81
2022-08-27T07:17:21.673Z,991.78
2022-08-27T07:18:27.208Z,991.79
2022-08-27T07:19:22.338Z,991.79
2022-08-27T07:20:21.267Z,991.84
2022-08-27T07:21:21.287Z,991.76
2022-08-27T07:22:21.392Z,991.82
2022-08-27T07:23:21.319Z,991.82
2022-08-27T07:24:21.258Z,991.79
2022-08-27T07:25:21.263Z,991.79
2022-08-27T07:26:21.270Z,991.76
2022-08-27T07:27:21.288Z,991.74
2022-08-27T07:28:21.252Z,991.82
2022-08-27T07:29:21.411Z,991.78
2022-08-27T07:30:21.366Z,991.79
2022-08-27T07:31:21.326Z,991.83
2022-08-27T07:32:21.261Z,991.81
2022-08-27T07:33:22.198Z,991.83
2022-08-27T07:34:21.169Z,991.81
2022-08-27T07:35:21.166Z,991.87
2022-08-27T07:36:21.195Z,991.86
2022-08-27T07:37:21.205Z,991.85
2022-08-27T07:38:21.163Z,991.88
2022-08-27T07:39:21.163Z,991.89
2022-08-27T07:40:21.233Z,991.86
2022-08-27T07:41:21.137Z,991.84
2022-08-27T07:42:21.176Z,991.90
2022-08-27T07:43:21.122Z,991.94
2022-08-27T07:44:21.125Z,991.94
2022-08-27T07:45:22.107Z,991.99
2022-08-27T07:46:21.128Z,991.93
2022-08-27T07:47:21.179Z,991.96
2022-08-27T07:48:21.098Z,991.94
2022-08-27T07:49:21.091Z,991.96
2022-08-27T07:50:21.093Z,992.01
2022-08-27T07:51:21.056Z,992.01
2022-08-27T07:52:25.885Z,992.01
2022-08-27T07:53:23.050Z,991.99
2022-08-27T07:54:21.069Z,992.00
2022-08-27T07:55:21.162Z,992.04
2022-08-27T07:56:21.030Z,992.08
2022-08-27T07:57:21.015Z,992.00
2022-08-27T07:58:21.029Z,992.02
2022-08-27T07:59:21.037Z,992.00
2022-08-27T08:00:21.075Z,992.09
2022-08-27T08:01:21.054Z,992.08
2022-08-27T08:02:20.996Z,991.99
2022-08-27T08:03:20.976Z,992.05
2022-08-27T08:04:21.018Z,992.00
2022-08-27T08:05:20.954Z,992.00
2022-08-27T08:06:20.947Z,992.02
2022-08-27T08:07:20.987Z,991.99
2022-08-27T08:08:20.962Z,992.03
2022-08-27T08:09:20.931Z,991.99
2022-08-27T08:10:20.952Z,991.99
2022-08-27T08:11:20.937Z,992.04
2022-08-27T08:12:21.971Z,992.06
2022-08-27T08:13:21.941Z,992.09
2022-08-27T08:14:20.936Z,992.07
2022-08-27T08:15:20.951Z,992.13
2022-08-27T08:16:20.968Z,992.20
2022-08-27T08:17:20.948Z,992.15
2022-08-27T08:18:21.736Z,992.16
2022-08-27T08:19:20.945Z,992.16
2022-08-27T08:20:35.659Z,992.24
2022-08-27T08:21:22.853Z,992.19
2022-08-27T08:22:20.926Z,992.15
2022-08-27T08:23:20.867Z,992.22
2022-08-27T08:24:20.826Z,992.15
2022-08-27T08:25:20.820Z,992.18
2022-08-27T08:26:20.827Z,992.20
2022-08-27T08:27:20.879Z,992.18
2022-08-27T08:28:20.798Z,992.19
2022-08-27T08:29:20.785Z,992.17
2022-08-27T08:30:20.793Z,992.24
2022-08-27T08:31:21.618Z,992.19
2022-08-27T08:32:20.946Z,992.18
2022-08-27T08:33:20.771Z,992.25
2022-08-27T08:34:20.848Z,992.25
2022-08-27T08:35:20.775Z,992.21
2022-08-27T08:36:20.778Z,992.31
2022-08-27T08:37:20.812Z,992.30
2022-08-27T08:38:20.793Z,992.34
2022-08-27T08:39:20.763Z,992.35
2022-08-27T08:40:20.766Z,992.39
2022-08-27T08:41:20.733Z,992.34
2022-08-27T08:42:20.741Z,992.32
2022-08-27T08:43:20.724Z,992.36
2022-08-27T08:44:20.778Z,992.35
2022-08-27T08:45:20.689Z,992.41
2022-08-27T08:46:20.873Z,992.41
2022-08-27T08:47:20.734Z,992.38
2022-08-27T08:48:20.663Z,992.40
2022-08-27T08:49:20.689Z,992.39
2022-08-27T08:50:20.721Z,992.40
2022-08-27T08:51:20.757Z,992.37
2022-08-27T08:52:31.686Z,992.35
2022-08-27T08:53:21.625Z,992.39
2022-08-27T08:54:20.641Z,992.43
2022-08-27T08:55:20.692Z,992.38
2022-08-27T08:56:20.718Z,992.33
2022-08-27T08:57:20.637Z,992.34
2022-08-27T08:58:20.591Z,992.38
2022-08-27T08:59:20.691Z,992.35
2022-08-27T09:00:20.638Z,992.34
2022-08-27T09:01:20.770Z,992.36
2022-08-27T09:02:20.600Z,992.38
2022-08-27T09:03:20.656Z,992.35
2022-08-27T09:04:20.673Z,992.40
2022-08-27T09:05:20.590Z,992.33
2022-08-27T09:06:21.537Z,992.34
2022-08-27T09:07:21.555Z,992.37
2022-08-27T09:08:41.056Z,992.39
2022-08-27T09:09:22.533Z,992.41
2022-08-27T09:10:20.703Z,992.35
2022-08-27T09:11:20.555Z,992.38
2022-08-27T09:12:20.525Z,992.38
2022-08-27T09:13:20.487Z,992.42
2022-08-27T09:14:20.491Z,992.39
2022-08-27T09:15:20.488Z,992.39
2022-08-27T09:16:20.597Z,992.41
2022-08-27T09:17:20.490Z,992.38
2022-08-27T09:18:20.513Z,992.42
2022-08-27T09:19:24.082Z,992.44
2022-08-27T09:20:20.439Z,992.39
2022-08-27T09:21:26.851Z,992.44
2022-08-27T09:22:21.456Z,992.35
2022-08-27T09:23:20.432Z,992.41
2022-08-27T09:24:20.417Z,992.39
2022-08-27T09:25:21.050Z,992.46
2022-08-27T09:26:21.391Z,992.46
2022-08-27T09:27:20.420Z,992.50
2022-08-27T09:28:20.389Z,992.48
2022-08-27T09:29:20.530Z,992.53
2022-08-27T09:30:20.375Z,992.54
2022-08-27T09:31:20.467Z,992.52
2022-08-27T09:32:20.410Z,992.53
2022-08-27T09:33:20.343Z,992.52
2022-08-27T09:34:20.355Z,992.51
2022-08-27T09:35:20.349Z,992.50
2022-08-27T09:36:23.547Z,992.53
2022-08-27T09:37:21.343Z,992.47
2022-08-27T09:38:20.366Z,992.47
2022-08-27T09:39:20.329Z,992.50
2022-08-27T09:40:23.078Z,992.48
2022-08-27T09:41:20.324Z,992.52
2022-08-27T09:42:20.292Z,992.49
2022-08-27T09:43:20.340Z,992.50
2022-08-27T09:44:20.298Z,992.51
2022-08-27T09:45:20.312Z,992.49
2022-08-27T09:46:20.365Z,992.52
2022-08-27T09:47:20.267Z,992.53
2022-08-27T09:48:20.285Z,992.52
2022-08-27T09:49:20.268Z,992.53
2022-08-27T09:50:20.258Z,992.49
2022-08-27T09:51:21.754Z,992.47
2022-08-27T09:52:20.261Z,992.58
2022-08-27T09:53:20.229Z,992.51
2022-08-27T09:54:20.233Z,992.51
2022-08-27T09:55:20.255Z,992.51
2022-08-27T09:56:20.500Z,992.44
2022-08-27T09:57:20.212Z,992.53
2022-08-27T09:58:20.269Z,992.51
2022-08-27T09:59:20.233Z,992.49
2022-08-27T10:00:20.181Z,992.47
2022-08-27T10:01:20.248Z,992.48
2022-08-27T10:02:20.171Z,992.46
2022-08-27T10:03:20.191Z,992.46
2022-08-27T10:04:20.237Z,992.48
2022-08-27T10:05:20.140Z,992.45
2022-08-27T10:06:20.113Z,992.35
2022-08-27T10:07:20.151Z,992.45
2022-08-27T10:08:20.169Z,992.37
2022-08-27T10:09:20.149Z,992.38
2022-08-27T10:10:20.090Z,992.42
2022-08-27T10:11:20.077Z,992.45
2022-08-27T10:12:20.124Z,992.43
2022-08-27T10:13:20.115Z,992.44
2022-08-27T10:14:20.108Z,992.48
2022-08-27T10:15:20.050Z,992.40
2022-08-27T10:16:20.127Z,992.38
2022-08-27T10:17:20.040Z,992.41
2022-08-27T10:18:20.063Z,992.41
2022-08-27T10:19:20.066Z,992.41
2022-08-27T10:20:21.640Z,992.43
2022-08-27T10:21:21.176Z,992.40
2022-08-27T10:22:20.286Z,992.42
2022-08-27T10:23:20.042Z,992.47
2022-08-27T10:24:20.023Z,992.46
2022-08-27T10:25:20.013Z,992.41
2022-08-27T10:26:20.005Z,992.44
2022-08-27T10:27:20.041Z,992.43
2022-08-27T10:28:20.023Z,992.48
2022-08-27T10:29:20.035Z,992.41
2022-08-27T10:30:19.942Z,992.48
2022-08-27T10:31:19.964Z,992.46
2022-08-27T10:32:20.142Z,992.47
2022-08-27T10:33:23.372Z,992.41
2022-08-27T10:34:21.004Z,992.43
2022-08-27T10:35:19.971Z,992.45
2022-08-27T10:36:19.918Z,992.40
2022-08-27T10:37:19.982Z,992.37
2022-08-27T10:38:19.891Z,992.37
2022-08-27T10:39:19.934Z,992.35
2022-08-27T10:40:19.958Z,992.33
2022-08-27T10:41:19.863Z,992.33
2022-08-27T10:42:19.877Z,992.42
2022-08-27T10:43:19.871Z,992.45
2022-08-27T10:44:19.899Z,992.28
2022-08-27T10:45:30.515Z,992.43
2022-08-27T10:46:24.976Z,992.42
2022-08-27T10:47:20.872Z,992.41
2022-08-27T10:48:19.992Z,992.41
2022-08-27T10:49:21.219Z,992.43
2022-08-27T10:50:19.886Z,992.42
2022-08-27T10:51:19.858Z,992.43
2022-08-27T10:52:19.853Z,992.45
2022-08-27T10:53:19.901Z,992.44
2022-08-27T10:54:19.809Z,992.39
2022-08-27T10:55:19.798Z,992.48
2022-08-27T10:56:19.799Z,992.43
2022-08-27T10:57:40.205Z,992.45
2022-08-27T10:58:21.763Z,992.44
2022-08-27T10:59:19.802Z,992.49
2022-08-27T11:00:19.759Z,992.46
2022-08-27T11:01:19.853Z,992.45
2022-08-27T11:02:19.790Z,992.45
2022-08-27T11:03:19.767Z,992.45
2022-08-27T11:04:19.754Z,992.46
2022-08-27T11:05:19.763Z,992.41
2022-08-27T11:06:19.752Z,992.41
2022-08-27T11:07:19.733Z,992.46
2022-08-27T11:08:19.700Z,992.43
2022-08-27T11:09:19.773Z,992.40
2022-08-27T11:10:20.922Z,992.43
2022-08-27T11:12:21.653Z,992.38
2022-08-27T11:13:19.691Z,992.46
2022-08-27T11:14:19.640Z,992.42
2022-08-27T11:15:19.672Z,992.47
2022-08-27T11:16:19.810Z,992.41
2022-08-27T11:17:19.656Z,992.45
2022-08-27T11:18:19.629Z,992.46
2022-08-27T11:19:19.635Z,992.40
2022-08-27T11:20:19.623Z,992.40
2022-08-27T11:21:19.730Z,992.36
2022-08-27T11:22:26.360Z,992.35
2022-08-27T11:23:20.616Z,992.39
2022-08-27T11:24:19.597Z,992.33
2022-08-27T11:25:20.604Z,992.36
2022-08-27T11:26:19.681Z,992.36
2022-08-27T11:27:19.640Z,992.43
2022-08-27T11:28:19.565Z,992.41
2022-08-27T11:29:20.582Z,992.41
2022-08-27T11:30:19.541Z,992.42
2022-08-27T11:31:19.585Z,992.44
2022-08-27T11:32:19.533Z,992.43
2022-08-27T11:33:19.544Z,992.43
2022-08-27T11:34:19.518Z,992.43
2022-08-27T11:35:19.517Z,992.46
2022-08-27T11:36:19.546Z,992.45
2022-08-27T11:37:19.476Z,992.48
2022-08-27T11:38:19.520Z,992.50
2022-08-27T11:39:19.486Z,992.46
2022-08-27T11:40:19.518Z,992.43
2022-08-27T11:41:19.514Z,992.43
2022-08-27T11:42:19.489Z,992.50
2022-08-27T11:43:19.508Z,992.46
2022-08-27T11:44:19.481Z,992.49
2022-08-27T11:45:19.437Z,992.49
2022-08-27T11:46:19.506Z,992.53
2022-08-27T11:47:20.458Z,992.46
2022-08-27T11:48:19.472Z,992.51
2022-08-27T11:49:19.403Z,992.56
2022-08-27T11:50:19.409Z,992.53
2022-08-27T11:51:19.395Z,992.57
2022-08-27T11:52:19.439Z,992.55
2022-08-27T11:53:19.383Z,992.54
2022-08-27T11:54:19.384Z,992.52
2022-08-27T11:55:19.367Z,992.50
2022-08-27T11:56:19.369Z,992.56
2022-08-27T11:57:19.393Z,992.54
2022-08-27T11:58:19.370Z,992.58
2022-08-27T11:59:19.370Z,992.50
2022-08-27T12:00:19.397Z,992.57
2022-08-27T12:01:19.340Z,992.58
2022-08-27T12:02:19.304Z,992.64
2022-08-27T12:03:19.379Z,992.58
2022-08-27T12:04:19.377Z,992.60
2022-08-27T12:05:22.136Z,992.60
2022-08-27T12:06:20.300Z,992.55
2022-08-27T12:07:19.291Z,992.55
2022-08-27T12:08:21.266Z,992.58
2022-08-27T12:09:19.332Z,992.57
2022-08-27T12:10:19.321Z,992.62
2022-08-27T12:11:19.264Z,992.63
2022-08-27T12:12:19.258Z,992.58
2022-08-27T12:13:19.303Z,992.61
2022-08-27T12:14:19.283Z,992.66
2022-08-27T12:15:19.223Z,992.67
2022-08-27T12:16:19.274Z,992.67
2022-08-27T12:17:19.265Z,992.70
2022-08-27T12:18:19.224Z,992.68
2022-08-27T12:19:19.302Z,992.67
2022-08-27T12:20:19.369Z,992.65
2022-08-27T12:21:19.188Z,992.70
2022-08-27T12:22:19.184Z,992.72
2022-08-27T12:23:19.207Z,992.72
2022-08-27T12:24:19.172Z,992.69
2022-08-27T12:25:19.224Z,992.74
2022-08-27T12:26:19.182Z,992.71
2022-08-27T12:27:19.201Z,992.66
2022-08-27T12:28:19.142Z,992.73
2022-08-27T12:29:19.179Z,992.72